Time;durP1;ratioP1;P1;durP2;ratioP2;P2;SDS_P1;SDS_P2;PMS_P1;PMS_P2;Temp;Humidity;BMP_temperature;BMP_pressure;BME280_temperature;BME280_humidity;BME280_pressure;Samples;Min_cycle;Max_cycle;Signal;HPM_P1;HPM_P2
2021/12/13 00:01:02;;;;;;;31.98;17.80;;;1.30;99.90;;;;;;4978285;28;20112;-73
2021/12/13 00:03:40;;;;;;;24.65;14.90;;;1.30;99.90;;;;;;4978217;28;20038;-75
2021/12/13 00:06:13;;;;;;;24.38;15.68;;;1.30;99.90;;;;;;4978183;28;20042;-75
2021/12/13 00:08:43;;;;;;;22.55;13.80;;;1.30;99.90;;;;;;4978150;28;20038;-75
2021/12/13 00:11:16;;;;;;;25.00;15.07;;;1.30;99.90;;;;;;4984592;28;20023;-75
2021/12/13 00:14:14;;;;;;;23.23;15.45;;;1.30;99.90;;;;;;4997434;28;20120;-75
2021/12/13 00:16:47;;;;;;;24.17;13.77;;;1.30;99.90;;;;;;4996804;28;20133;-75
2021/12/13 00:19:19;;;;;;;27.50;15.73;;;1.30;99.90;;;;;;4997657;28;20381;-75
2021/12/13 00:21:56;;;;;;;27.35;16.60;;;1.40;99.90;;;;;;4996982;28;20388;-74
2021/12/13 00:24:26;;;;;;;26.52;14.77;;;1.40;99.90;;;;;;4996976;28;20556;-75
2021/12/13 00:27:09;;;;;;;26.15;16.50;;;1.30;99.90;;;;;;4997285;28;20042;-74
2021/12/13 00:29:55;;;;;;;25.80;15.52;;;1.40;99.90;;;;;;4996324;28;20068;-74
2021/12/13 00:32:34;;;;;;;27.77;17.20;;;1.30;99.90;;;;;;4997340;28;20520;-74
2021/12/13 00:35:04;;;;;;;30.45;15.95;;;1.30;99.90;;;;;;4997722;28;20600;-75
2021/12/13 00:37:52;;;;;;;27.10;16.02;;;1.30;99.90;;;;;;4996869;28;20077;-73
2021/12/13 00:40:26;;;;;;;23.33;14.50;;;1.30;99.90;;;;;;4996700;28;20092;-73
2021/12/13 00:42:55;;;;;;;24.33;13.82;;;1.30;99.90;;;;;;4996687;28;20499;-75
2021/12/13 00:45:25;;;;;;;23.70;14.68;;;1.40;99.90;;;;;;4997300;28;20025;-75
2021/12/13 00:47:53;;;;;;;26.02;15.68;;;1.40;99.90;;;;;;4996954;28;20424;-74
2021/12/13 00:50:42;;;;;;;28.92;16.38;;;1.40;99.90;;;;;;4996695;28;20465;-75
2021/12/13 00:53:09;;;;;;;25.55;16.67;;;1.30;99.90;;;;;;4994689;28;20034;-74
2021/12/13 00:55:36;;;;;;;26.80;15.40;;;1.30;99.90;;;;;;4994195;28;20034;-74
2021/12/13 00:58:12;;;;;;;25.63;15.93;;;1.30;99.90;;;;;;4994130;28;20040;-74
2021/12/13 01:00:53;;;;;;;25.88;15.07;;;1.40;99.90;;;;;;4994095;28;20056;-75
2021/12/13 01:03:46;;;;;;;24.02;14.50;;;1.40;99.90;;;;;;4994218;28;20041;-74
2021/12/13 01:06:53;;;;;;;23.60;14.73;;;1.30;99.90;;;;;;4972065;28;20042;-73
2021/12/13 01:09:40;;;;;;;24.55;15.32;;;1.40;99.90;;;;;;4971663;28;20037;-75
2021/12/13 01:12:10;;;;;;;22.67;13.63;;;1.40;99.90;;;;;;4955283;28;20126;-74
2021/12/13 01:14:38;;;;;;;23.70;15.40;;;1.40;99.90;;;;;;4952618;28;20027;-74
2021/12/13 01:17:29;;;;;;;22.92;14.70;;;1.40;99.90;;;;;;4965160;28;20520;-74
2021/12/13 01:20:10;;;;;;;27.02;14.60;;;1.40;99.90;;;;;;4971480;28;20085;-74
2021/12/13 01:22:55;;;;;;;26.10;15.93;;;1.40;99.90;;;;;;4971874;28;20055;-74
2021/12/13 01:28:15;;;;;;;28.77;16.67;;;1.40;99.90;;;;;;4971863;28;20074;-74
2021/12/13 01:30:50;;;;;;;24.25;15.77;;;1.40;99.90;;;;;;4971689;28;20347;-73
2021/12/13 01:33:20;;;;;;;24.77;15.27;;;1.40;99.90;;;;;;4971638;28;20031;-73
2021/12/13 01:35:49;;;;;;;25.63;15.32;;;1.40;99.90;;;;;;4971646;28;20477;-74
2021/12/13 01:38:21;;;;;;;26.52;16.02;;;1.40;99.90;;;;;;4971044;28;20094;-74
2021/12/13 01:40:51;;;;;;;24.85;15.70;;;1.40;99.90;;;;;;4971746;28;20070;-74
2021/12/13 01:43:28;;;;;;;26.98;15.98;;;1.40;99.90;;;;;;4983601;28;20057;-73
2021/12/13 01:45:56;;;;;;;27.20;16.88;;;1.40;99.90;;;;;;4993092;28;20034;-73
2021/12/13 01:48:37;;;;;;;28.25;16.45;;;1.40;99.90;;;;;;4993443;28;20026;-74
2021/12/13 01:51:10;;;;;;;23.10;15.20;;;1.40;99.90;;;;;;4993396;28;20768;-74
2021/12/13 01:53:42;;;;;;;28.08;14.85;;;1.40;99.90;;;;;;4993180;28;20088;-73
2021/12/13 02:02:08;;;;;;;24.00;15.15;;;1.40;99.90;;;;;;4992847;28;20411;-73
2021/12/13 02:04:35;;;;;;;22.38;14.10;;;1.40;99.90;;;;;;4993057;28;20027;-75
2021/12/13 02:07:03;;;;;;;23.60;14.70;;;1.50;99.90;;;;;;4975662;28;20022;-74
2021/12/13 02:09:34;;;;;;;21.10;13.85;;;1.50;99.90;;;;;;4973262;28;20037;-74
2021/12/13 02:12:05;;;;;;;26.33;15.98;;;1.50;99.90;;;;;;4973226;28;20066;-74
2021/12/13 02:14:33;;;;;;;25.27;14.07;;;1.50;99.90;;;;;;4973371;28;20120;-74
2021/12/13 02:17:11;;;;;;;24.27;14.57;;;1.40;99.90;;;;;;4973495;28;20027;-73
2021/12/13 02:19:37;;;;;;;22.48;13.73;;;1.40;99.90;;;;;;4974748;28;20062;-73
2021/12/13 02:22:25;;;;;;;26.50;15.68;;;1.40;99.90;;;;;;4989366;28;20022;-73
2021/12/13 02:24:53;;;;;;;24.90;15.65;;;1.40;99.90;;;;;;4926137;29;20056;-74
2021/12/13 02:27:24;;;;;;;29.35;15.63;;;1.40;99.90;;;;;;4917211;29;20051;-73
2021/12/13 02:29:53;;;;;;;25.15;16.08;;;1.40;99.90;;;;;;4912421;29;20118;-74
2021/12/13 02:32:25;;;;;;;23.83;15.20;;;1.40;99.90;;;;;;4912621;29;20031;-74
2021/12/13 02:34:52;;;;;;;20.38;13.43;;;1.40;99.90;;;;;;4912598;29;20051;-74
2021/12/13 02:37:18;;;;;;;18.90;12.55;;;1.40;99.90;;;;;;4923580;29;20183;-74
2021/12/13 02:39:49;;;;;;;24.30;14.45;;;1.40;99.90;;;;;;4916489;29;20163;-74
2021/12/13 02:42:18;;;;;;;21.73;12.98;;;1.40;99.90;;;;;;4912738;29;20811;-74
2021/12/13 02:44:48;;;;;;;20.45;14.07;;;1.40;99.90;;;;;;4913124;29;20020;-76
2021/12/13 02:47:26;;;;;;;22.92;13.60;;;1.40;99.90;;;;;;4912729;29;20032;-76
2021/12/13 02:49:52;;;;;;;23.00;13.45;;;1.50;99.90;;;;;;4912891;29;20103;-75
2021/12/13 02:52:21;;;;;;;24.48;13.98;;;1.40;99.90;;;;;;4912778;29;20036;-75
2021/12/13 02:55:05;;;;;;;24.50;15.07;;;1.40;99.90;;;;;;4950461;29;20039;-75
2021/12/13 02:57:35;;;;;;;22.52;13.68;;;1.40;99.90;;;;;;4939037;29;20239;-75
2021/12/13 03:00:19;;;;;;;23.02;12.70;;;1.40;99.90;;;;;;4926388;29;20032;-75
2021/12/13 03:02:49;;;;;;;21.30;14.07;;;1.40;99.90;;;;;;4985598;28;20034;-75
2021/12/13 03:05:39;;;;;;;21.88;13.63;;;1.40;99.90;;;;;;4991448;28;20037;-76
2021/12/13 03:08:15;;;;;;;26.10;16.60;;;1.40;99.90;;;;;;4990927;28;20030;-75
2021/12/13 03:10:48;;;;;;;25.10;14.43;;;1.40;99.90;;;;;;4991814;28;20031;-75
2021/12/13 03:13:15;;;;;;;23.65;14.68;;;1.40;99.90;;;;;;4991536;28;20429;-75
2021/12/13 03:15:46;;;;;;;26.05;14.25;;;1.40;99.90;;;;;;4990950;28;20030;-75
2021/12/13 03:18:28;;;;;;;23.95;13.82;;;1.40;99.90;;;;;;4991766;28;20112;-74
2021/12/13 03:21:20;;;;;;;24.88;14.63;;;1.40;99.90;;;;;;4990338;28;20609;-74
2021/12/13 03:24:00;;;;;;;22.73;14.63;;;1.40;99.90;;;;;;4991542;28;20022;-74
2021/12/13 03:26:55;;;;;;;24.95;13.88;;;1.40;99.90;;;;;;4990995;28;20067;-75
2021/12/13 03:29:47;;;;;;;27.63;15.40;;;1.40;99.90;;;;;;4991276;28;20030;-74
2021/12/13 03:32:15;;;;;;;22.88;13.95;;;1.40;99.90;;;;;;4969271;28;20070;-74
2021/12/13 03:34:58;;;;;;;26.05;15.20;;;1.40;99.90;;;;;;4969299;28;20094;-74
2021/12/13 03:37:24;;;;;;;22.45;14.50;;;1.40;99.90;;;;;;4969242;28;20038;-76
2021/12/13 03:39:55;;;;;;;22.20;13.68;;;1.40;99.90;;;;;;4968666;28;20042;-75
2021/12/13 03:42:26;;;;;;;24.13;13.77;;;1.40;99.90;;;;;;4952956;28;20073;-76
2021/12/13 03:44:55;;;;;;;24.48;13.95;;;1.40;99.90;;;;;;4968844;28;20030;-75
2021/12/13 03:47:30;;;;;;;21.17;12.55;;;1.40;99.90;;;;;;4969429;28;20030;-75
2021/12/13 03:49:59;;;;;;;24.33;14.65;;;1.40;99.90;;;;;;4953383;28;20556;-75
2021/12/13 03:52:29;;;;;;;25.77;14.82;;;1.40;99.90;;;;;;4969023;28;20023;-75
2021/12/13 03:54:57;;;;;;;21.05;13.02;;;1.40;99.90;;;;;;4952411;28;20034;-75
2021/12/13 03:57:24;;;;;;;25.77;14.38;;;1.40;99.90;;;;;;4968605;28;20039;-75
2021/12/13 03:59:50;;;;;;;24.67;14.00;;;1.40;99.90;;;;;;4968528;28;20485;-73
2021/12/13 04:02:37;;;;;;;23.58;13.98;;;1.40;99.90;;;;;;4968763;28;20671;-75
2021/12/13 04:05:10;;;;;;;22.45;13.45;;;1.40;99.90;;;;;;4969279;28;20535;-76
2021/12/13 04:07:46;;;;;;;22.58;14.32;;;1.30;99.90;;;;;;4969016;28;20127;-76
2021/12/13 04:10:19;;;;;;;22.90;13.77;;;1.30;99.90;;;;;;4988536;28;20046;-75
2021/12/13 04:12:50;;;;;;;22.70;13.02;;;1.30;99.90;;;;;;4991042;28;20121;-75
2021/12/13 04:15:26;;;;;;;20.90;12.77;;;1.30;99.90;;;;;;4989568;28;20026;-75
2021/12/13 04:18:01;;;;;;;23.05;13.82;;;1.30;99.90;;;;;;4991197;28;20038;-76
2021/12/13 04:20:37;;;;;;;21.67;13.13;;;1.30;99.90;;;;;;4989911;28;20041;-75
2021/12/13 04:23:11;;;;;;;23.85;14.35;;;1.30;99.90;;;;;;4990161;28;20054;-75
2021/12/13 04:25:42;;;;;;;23.65;14.38;;;1.30;99.90;;;;;;4990480;28;20059;-74
2021/12/13 04:28:12;;;;;;;24.60;15.15;;;1.30;99.90;;;;;;4990803;28;20141;-75
2021/12/13 04:30:40;;;;;;;24.70;14.38;;;1.40;99.90;;;;;;4994305;28;20066;-75
2021/12/13 04:33:34;;;;;;;27.35;16.48;;;1.30;99.90;;;;;;4994100;28;20026;-75
2021/12/13 04:36:07;;;;;;;23.35;14.32;;;1.30;99.90;;;;;;4994134;28;20065;-75
2021/12/13 04:38:52;;;;;;;22.15;13.90;;;1.30;99.90;;;;;;4973878;28;20065;-75
2021/12/13 04:41:23;;;;;;;23.60;14.48;;;1.30;99.90;;;;;;4992926;28;20027;-75
2021/12/13 04:43:53;;;;;;;23.40;13.60;;;1.30;99.90;;;;;;4993818;28;20026;-76
2021/12/13 04:46:21;;;;;;;23.55;13.93;;;1.30;99.90;;;;;;4993924;28;20425;-75
2021/12/13 04:48:54;;;;;;;25.10;14.80;;;1.30;99.90;;;;;;4994193;28;20031;-76
2021/12/13 04:51:26;;;;;;;25.63;15.05;;;1.30;99.90;;;;;;4994749;28;20041;-76
2021/12/13 04:53:53;;;;;;;22.55;13.85;;;1.30;99.90;;;;;;4993878;28;20069;-75
2021/12/13 04:56:24;;;;;;;23.08;14.77;;;1.30;99.90;;;;;;4993820;28;20042;-74
2021/12/13 04:58:54;;;;;;;20.77;12.82;;;1.30;99.90;;;;;;4992093;28;20124;-76
2021/12/13 05:01:21;;;;;;;24.52;13.93;;;1.40;99.90;;;;;;4993971;28;20022;-76
2021/12/13 05:03:56;;;;;;;26.25;15.23;;;1.30;99.90;;;;;;4993429;28;20093;-76
2021/12/13 05:06:27;;;;;;;24.88;15.82;;;1.30;99.90;;;;;;4993840;28;20101;-76
2021/12/13 05:08:56;;;;;;;25.30;16.52;;;1.30;99.90;;;;;;4993837;28;20639;-76
2021/12/13 05:11:27;;;;;;;27.90;16.98;;;1.30;99.90;;;;;;4994167;28;20126;-77
2021/12/13 05:13:56;;;;;;;28.85;16.20;;;1.30;99.90;;;;;;4994142;28;20073;-75
2021/12/13 05:16:40;;;;;;;27.42;17.33;;;1.30;99.90;;;;;;4994227;28;20076;-75
2021/12/13 05:19:09;;;;;;;29.98;17.70;;;1.30;99.90;;;;;;4994261;28;20044;-75
2021/12/13 05:21:45;;;;;;;28.80;18.38;;;1.30;99.90;;;;;;4994704;28;20028;-75
2021/12/13 05:24:21;;;;;;;31.80;19.23;;;1.30;99.90;;;;;;4992555;28;20661;-75
2021/12/13 05:26:58;;;;;;;28.65;17.48;;;1.30;99.90;;;;;;4993584;28;20415;-76
2021/12/13 05:29:29;;;;;;;25.98;16.70;;;1.30;99.90;;;;;;4994280;28;20045;-76
2021/12/13 05:32:09;;;;;;;29.15;17.23;;;1.30;99.90;;;;;;4994091;28;20612;-77
2021/12/13 05:34:48;;;;;;;31.85;18.63;;;1.30;99.90;;;;;;4993512;28;20034;-77
2021/12/13 05:37:16;;;;;;;31.70;18.90;;;1.40;99.90;;;;;;4994155;28;21925;-76
2021/12/13 05:40:06;;;;;;;29.10;18.77;;;1.40;99.90;;;;;;4993491;28;20069;-76
2021/12/13 05:42:39;;;;;;;28.80;18.70;;;1.30;99.90;;;;;;4993913;28;20035;-76
2021/12/13 05:45:09;;;;;;;28.73;19.77;;;1.40;99.90;;;;;;4993714;28;20102;-76
2021/12/13 05:47:36;;;;;;;31.52;19.55;;;1.40;99.90;;;;;;4993784;28;20027;-76
2021/12/13 05:50:06;;;;;;;28.27;17.67;;;1.40;99.90;;;;;;4993554;28;20027;-76
2021/12/13 05:52:35;;;;;;;30.42;19.77;;;1.40;99.90;;;;;;4992119;28;20034;-76
2021/12/13 05:55:07;;;;;;;28.55;18.92;;;1.40;99.90;;;;;;4993300;28;20038;-76
2021/12/13 05:57:43;;;;;;;31.92;19.58;;;1.50;99.90;;;;;;4985743;28;20073;-75
2021/12/13 06:00:27;;;;;;;28.67;17.65;;;1.40;99.90;;;;;;4993497;28;20022;-76
2021/12/13 06:03:09;;;;;;;30.65;18.90;;;1.50;99.90;;;;;;4993214;28;20053;-76
2021/12/13 06:05:38;;;;;;;30.10;18.15;;;1.40;99.90;;;;;;4993525;28;20038;-76
2021/12/13 06:08:17;;;;;;;29.67;18.67;;;1.40;99.90;;;;;;4993463;28;20054;-76
2021/12/13 06:10:46;;;;;;;32.40;19.67;;;1.40;99.90;;;;;;4993267;28;20030;-76
2021/12/13 06:13:36;;;;;;;33.03;20.08;;;1.40;99.90;;;;;;4993303;28;20030;-75
2021/12/13 06:16:03;;;;;;;31.67;20.30;;;1.40;99.90;;;;;;4993214;28;20358;-76
2021/12/13 06:18:58;;;;;;;33.22;19.65;;;1.40;99.90;;;;;;4993284;28;20030;-76
2021/12/13 06:21:48;;;;;;;34.08;19.17;;;1.40;99.90;;;;;;4971205;28;20519;-76
2021/12/13 06:24:22;;;;;;;34.58;19.65;;;1.40;99.90;;;;;;4964403;28;20035;-76
2021/12/13 06:26:48;;;;;;;34.45;19.17;;;1.40;99.90;;;;;;4953076;28;20427;-76
2021/12/13 06:29:14;;;;;;;29.00;18.10;;;1.40;99.90;;;;;;4957535;28;20039;-76
2021/12/13 06:31:45;;;;;;;38.60;19.60;;;1.40;99.90;;;;;;4960891;28;20047;-76
2021/12/13 06:34:16;;;;;;;34.95;20.88;;;1.50;99.90;;;;;;4970352;28;20528;-76
2021/12/13 06:36:52;;;;;;;32.50;20.23;;;1.50;99.90;;;;;;4969677;28;20119;-75
2021/12/13 06:39:29;;;;;;;38.83;22.23;;;1.50;99.90;;;;;;4971122;28;20065;-76
2021/12/13 06:42:04;;;;;;;31.67;19.58;;;1.50;99.90;;;;;;4971148;28;20035;-76
2021/12/13 06:44:34;;;;;;;34.47;21.23;;;1.50;99.90;;;;;;4970407;28;20034;-76
2021/12/13 06:47:16;;;;;;;37.08;21.52;;;1.50;99.90;;;;;;4970566;28;20039;-76
2021/12/13 06:49:57;;;;;;;35.63;22.30;;;1.50;99.90;;;;;;4970893;28;20117;-75
2021/12/13 06:52:37;;;;;;;36.40;21.40;;;1.50;99.90;;;;;;4969118;28;20039;-76
2021/12/13 06:55:11;;;;;;;36.65;23.92;;;1.50;99.90;;;;;;4970187;28;20031;-75
2021/12/13 06:57:48;;;;;;;39.20;23.02;;;1.50;99.90;;;;;;4976679;28;20059;-75
2021/12/13 07:00:20;;;;;;;37.95;24.85;;;1.60;99.90;;;;;;4992180;28;20072;-75
2021/12/13 07:02:53;;;;;;;33.92;23.60;;;1.60;99.90;;;;;;4991338;28;20027;-76
2021/12/13 07:05:36;;;;;;;43.95;29.83;;;1.50;99.90;;;;;;4992728;28;20022;-76
2021/12/13 07:08:04;;;;;;;;;;;1.50;99.90;;;;;;4992898;28;20034;-75
2021/12/13 07:10:33;;;;;;;29.20;19.52;;;1.50;99.90;;;;;;4992138;28;19957;-75
2021/12/13 07:13:06;;;;;;;32.67;21.45;;;1.50;99.90;;;;;;4992116;28;20084;-76
2021/12/13 07:15:44;;;;;;;32.78;19.40;;;1.60;99.90;;;;;;4992548;28;20388;-75
2021/12/13 07:18:28;;;;;;;33.58;21.27;;;1.60;99.90;;;;;;4988301;28;20100;-75
2021/12/13 07:21:17;;;;;;;34.20;20.50;;;1.60;99.90;;;;;;4987809;28;20354;-75
2021/12/13 07:24:07;;;;;;;37.38;22.27;;;1.60;99.90;;;;;;4989743;28;20492;-75
2021/12/13 07:26:44;;;;;;;34.95;24.20;;;1.60;99.90;;;;;;4990945;28;20120;-75
2021/12/13 07:29:20;;;;;;;30.95;20.50;;;1.60;99.90;;;;;;4992033;28;20026;-75
2021/12/13 07:32:06;;;;;;;32.33;22.00;;;1.60;99.90;;;;;;4992429;28;20135;-75
2021/12/13 07:34:45;;;;;;;34.22;22.80;;;1.60;99.90;;;;;;4985373;28;20424;-75
2021/12/13 07:37:11;;;;;;;30.63;20.65;;;1.60;99.90;;;;;;4991913;28;20032;-75
2021/12/13 07:39:37;;;;;;;31.63;20.67;;;1.60;99.90;;;;;;4982152;28;20038;-75
2021/12/13 07:42:09;;;;;;;33.05;20.10;;;1.80;99.90;;;;;;4985975;28;20477;-75
2021/12/13 07:44:48;;;;;;;34.88;21.98;;;1.70;99.90;;;;;;4990613;28;20034;-75
2021/12/13 07:47:23;;;;;;;34.05;21.75;;;1.70;99.90;;;;;;4972851;28;20097;-75
2021/12/13 07:49:58;;;;;;;35.40;23.13;;;1.70;99.90;;;;;;4972792;28;20385;-75
2021/12/13 07:52:34;;;;;;;35.30;21.77;;;1.80;99.90;;;;;;4972148;28;20034;-75
2021/12/13 07:55:19;;;;;;;31.80;20.90;;;1.70;99.90;;;;;;4983606;28;20028;-75
2021/12/13 07:57:48;;;;;;;36.13;21.13;;;1.70;99.90;;;;;;4990714;28;20035;-75
2021/12/13 08:00:33;;;;;;;32.45;20.05;;;1.70;99.90;;;;;;4992348;28;20026;-74
2021/12/13 08:03:07;;;;;;;30.52;20.23;;;1.80;99.90;;;;;;4992749;28;20097;-74
2021/12/13 08:05:45;;;;;;;31.17;20.08;;;1.70;99.90;;;;;;4995192;28;20465;-75
2021/12/13 08:08:27;;;;;;;32.50;20.05;;;1.70;99.90;;;;;;4995195;28;20464;-75
2021/12/13 08:10:58;;;;;;;29.95;20.20;;;1.80;99.90;;;;;;4994335;28;20037;-75
2021/12/13 08:13:30;;;;;;;34.30;20.73;;;1.80;99.90;;;;;;4994142;28;20041;-75
2021/12/13 08:16:08;;;;;;;34.85;20.75;;;1.80;99.90;;;;;;4995036;28;20030;-75
2021/12/13 08:18:41;;;;;;;34.00;20.63;;;1.80;99.90;;;;;;4993815;28;20035;-75
2021/12/13 08:21:24;;;;;;;31.73;21.13;;;1.80;99.90;;;;;;4994986;28;20022;-75
2021/12/13 08:23:59;;;;;;;34.70;20.17;;;1.80;99.90;;;;;;4994161;28;20076;-75
2021/12/13 08:26:36;;;;;;;31.88;18.75;;;1.70;99.90;;;;;;4985704;28;20053;-75
2021/12/13 08:29:15;;;;;;;30.98;19.63;;;1.80;99.90;;;;;;4994402;28;20034;-75
2021/12/13 08:31:41;;;;;;;33.35;21.40;;;1.70;99.90;;;;;;4995200;28;20026;-74
2021/12/13 08:34:14;;;;;;;29.17;19.30;;;1.80;99.90;;;;;;4995175;28;20384;-75
2021/12/13 08:36:44;;;;;;;31.75;21.45;;;1.70;99.90;;;;;;4980228;28;20042;-74
2021/12/13 08:39:28;;;;;;;34.08;20.70;;;1.70;99.90;;;;;;4994463;28;20247;-75
2021/12/13 08:41:59;;;;;;;30.27;19.00;;;1.70;99.90;;;;;;4994628;28;20026;-74
2021/12/13 08:44:36;;;;;;;32.83;19.77;;;1.60;99.90;;;;;;4995391;28;20029;-74
2021/12/13 08:47:14;;;;;;;27.85;19.50;;;1.60;99.90;;;;;;4995108;28;20019;-75
2021/12/13 08:49:47;;;;;;;30.15;20.67;;;1.60;99.90;;;;;;4994749;28;20034;-74
2021/12/13 08:52:16;;;;;;;33.15;21.33;;;1.70;99.90;;;;;;4994424;28;20034;-74
2021/12/13 08:55:09;;;;;;;33.17;19.15;;;1.70;99.90;;;;;;4994003;28;20476;-74
2021/12/13 08:57:58;;;;;;;34.78;21.88;;;1.70;99.90;;;;;;4994951;28;20122;-74
2021/12/13 09:00:43;;;;;;;35.75;22.65;;;1.80;99.90;;;;;;4994322;28;20062;-73
2021/12/13 09:03:44;;;;;;;38.30;23.20;;;1.80;99.90;;;;;;4994907;28;20480;-74
2021/12/13 09:06:23;;;;;;;45.40;30.05;;;1.80;99.90;;;;;;4972861;28;20035;-74
2021/12/13 09:09:12;;;;;;;57.13;35.03;;;1.80;99.90;;;;;;4972578;28;20560;-74
2021/12/13 09:11:57;;;;;;;59.45;37.20;;;1.90;99.90;;;;;;4972542;28;20041;-74
2021/12/13 09:14:23;;;;;;;52.67;31.88;;;1.90;99.90;;;;;;4971587;28;20054;-74
2021/12/13 09:16:56;;;;;;;47.97;29.73;;;2.00;99.90;;;;;;4972708;28;20085;-74
2021/12/13 09:19:32;;;;;;;48.70;29.90;;;2.00;99.90;;;;;;4973035;28;20048;-75
2021/12/13 09:22:08;;;;;;;44.28;30.17;;;2.00;99.90;;;;;;4972886;28;20101;-75
2021/12/13 09:24:48;;;;;;;43.22;29.38;;;2.00;99.90;;;;;;4971828;28;20077;-74
2021/12/13 09:27:17;;;;;;;46.05;29.30;;;2.10;99.90;;;;;;4972545;28;20113;-74
2021/12/13 09:29:49;;;;;;;41.03;28.13;;;2.20;99.90;;;;;;4972596;28;20109;-75
2021/12/13 09:32:15;;;;;;;42.83;28.50;;;2.20;99.90;;;;;;4971523;28;20082;-75
2021/12/13 09:34:41;;;;;;;46.50;31.15;;;2.30;99.90;;;;;;4972940;28;20026;-74
2021/12/13 09:37:08;;;;;;;53.53;32.72;;;2.40;99.90;;;;;;4956857;28;20421;-74
2021/12/13 09:39:34;;;;;;;59.05;32.72;;;2.50;99.90;;;;;;4972940;28;20109;-74
2021/12/13 09:42:06;;;;;;;67.47;34.13;;;2.50;99.90;;;;;;4977939;28;20683;-74
2021/12/13 09:44:51;;;;;;;65.35;35.00;;;2.50;99.90;;;;;;4993668;28;20027;-74
2021/12/13 09:47:23;;;;;;;69.53;38.72;;;2.50;99.90;;;;;;4993804;28;20117;-74
2021/12/13 09:49:58;;;;;;;57.70;31.45;;;2.50;99.90;;;;;;4992997;28;20498;-74
2021/12/13 09:52:29;;;;;;;64.30;36.50;;;2.60;99.90;;;;;;4993549;28;20034;-74
2021/12/13 09:55:26;;;;;;;66.43;38.33;;;2.80;99.90;;;;;;4993490;28;20030;-74
2021/12/13 09:58:09;;;;;;;50.28;32.60;;;2.90;99.90;;;;;;4993691;28;20034;-74
2021/12/13 10:01:01;;;;;;;36.97;27.38;;;3.10;99.90;;;;;;4990377;28;20036;-74
2021/12/13 10:03:33;;;;;;;38.38;26.48;;;3.40;99.90;;;;;;4969914;28;20424;-74
2021/12/13 10:06:03;;;;;;;48.88;33.08;;;3.60;99.90;;;;;;4971186;28;20039;-74
2021/12/13 10:08:41;;;;;;;46.63;33.55;;;3.70;99.90;;;;;;4969185;28;20070;-74
2021/12/13 10:11:12;;;;;;;39.65;29.35;;;4.00;99.90;;;;;;4970128;28;20548;-74
2021/12/13 10:13:41;;;;;;;43.45;29.75;;;4.20;99.90;;;;;;4971281;28;20038;-74
2021/12/13 10:16:10;;;;;;;43.80;29.25;;;4.30;99.90;;;;;;4971335;28;20026;-74
2021/12/13 10:18:40;;;;;;;40.53;27.92;;;4.30;99.90;;;;;;4970398;28;20042;-73
2021/12/13 10:21:17;;;;;;;45.83;29.27;;;4.20;99.90;;;;;;4970440;28;20482;-73
2021/12/13 10:23:49;;;;;;;35.60;26.33;;;4.00;99.90;;;;;;4970953;28;20035;-74
2021/12/13 10:26:16;;;;;;;37.80;23.53;;;4.00;99.90;;;;;;4969560;28;20574;-74
2021/12/13 10:28:53;;;;;;;36.00;24.08;;;4.00;99.90;;;;;;4969626;28;20117;-74
2021/12/13 10:31:41;;;;;;;39.25;27.60;;;3.90;99.90;;;;;;4969914;28;20035;-73
2021/12/13 10:34:14;;;;;;;33.67;23.80;;;4.10;99.90;;;;;;4875855;29;20467;-73
2021/12/13 10:36:43;;;;;;;40.10;21.85;;;4.10;99.90;;;;;;4875758;29;20032;-72
2021/12/13 10:39:16;;;;;;;34.63;22.17;;;4.00;99.90;;;;;;4875785;29;20049;-73
2021/12/13 10:41:45;;;;;;;32.67;22.38;;;4.10;99.90;;;;;;4894523;29;20057;-72
2021/12/13 10:44:24;;;;;;;38.97;26.83;;;4.00;99.90;;;;;;4894921;29;20036;-73
2021/12/13 10:46:53;;;;;;;44.33;29.13;;;4.10;99.90;;;;;;4895326;29;20563;-73
2021/12/13 10:49:25;;;;;;;36.15;23.48;;;4.10;99.90;;;;;;4907575;29;20029;-73
2021/12/13 10:52:10;;;;;;;43.92;29.45;;;4.10;99.90;;;;;;4899796;29;20044;-72
2021/12/13 10:54:41;;;;;;;49.25;33.88;;;4.10;99.90;;;;;;4901009;29;20028;-73
2021/12/13 10:57:38;;;;;;;55.90;36.60;;;4.20;99.90;;;;;;4898552;29;20068;-73
2021/12/13 11:00:14;;;;;;;61.40;34.58;;;4.30;99.90;;;;;;4841037;29;20512;-72
2021/12/13 11:02:40;;;;;;;44.97;29.25;;;4.20;99.90;;;;;;4842670;29;20037;-72
2021/12/13 11:05:11;;;;;;;46.60;30.77;;;4.10;99.90;;;;;;4845757;29;20371;-72
2021/12/13 11:07:37;;;;;;;40.65;26.85;;;4.10;99.90;;;;;;4838225;29;20396;-72
2021/12/13 11:10:09;;;;;;;43.97;30.30;;;3.90;99.90;;;;;;4848495;29;20033;-72
2021/12/13 11:12:41;;;;;;;51.22;30.98;;;4.10;99.90;;;;;;4931981;29;20036;-72
2021/12/13 11:15:15;;;;;;;42.03;27.67;;;4.20;99.90;;;;;;4926802;29;20035;-73
2021/12/13 11:17:42;;;;;;;44.45;28.80;;;4.10;99.90;;;;;;4932485;29;20537;-72
2021/12/13 11:20:23;;;;;;;48.53;30.25;;;4.30;99.90;;;;;;4916288;29;20039;-73
2021/12/13 11:22:51;;;;;;;49.03;32.53;;;4.30;99.90;;;;;;4932054;29;20043;-72
2021/12/13 11:25:27;;;;;;;48.65;31.83;;;4.20;99.90;;;;;;4931936;29;20051;-71
2021/12/13 11:27:53;;;;;;;44.83;31.73;;;4.30;99.90;;;;;;4931549;29;20036;-71
2021/12/13 11:30:25;;;;;;;50.10;33.67;;;4.30;99.90;;;;;;4931893;29;20067;-71
2021/12/13 11:32:57;;;;;;;42.75;29.58;;;4.30;99.90;;;;;;4928837;29;20046;-71
2021/12/13 11:36:20;;;;;;;46.50;28.92;;;4.40;99.90;;;;;;4933760;28;20502;-69
2021/12/13 11:39:09;;;;;;;46.45;28.90;;;4.20;99.90;;;;;;4930936;29;20091;-71
2021/12/13 11:41:53;;;;;;;54.00;33.35;;;4.30;99.90;;;;;;4931936;29;20406;-71
2021/12/13 11:44:40;;;;;;;44.60;29.70;;;4.30;99.90;;;;;;4923567;29;20087;-72
2021/12/13 11:47:30;;;;;;;41.10;26.13;;;4.40;99.90;;;;;;4920185;29;20063;-71
2021/12/13 11:50:29;;;;;;;46.40;29.27;;;4.30;99.90;;;;;;4930058;29;20036;-70
2021/12/13 11:53:31;;;;;;;44.50;28.77;;;4.40;99.90;;;;;;4912690;29;20599;-71
2021/12/13 11:56:33;;;;;;;46.83;30.13;;;4.50;99.90;;;;;;4923949;29;20040;-71
2021/12/13 11:59:08;;;;;;;50.35;33.35;;;4.50;99.90;;;;;;4921474;29;20073;-70
2021/12/13 12:02:00;;;;;;;48.17;31.95;;;4.50;99.90;;;;;;4917887;29;20034;-70
2021/12/13 12:05:05;;;;;;;45.65;27.98;;;4.40;99.90;;;;;;4916523;29;20122;-71
2021/12/13 12:08:13;;;;;;;49.55;31.38;;;4.30;99.90;;;;;;4931001;29;20032;-71
2021/12/13 12:10:48;;;;;;;45.75;28.80;;;4.40;99.90;;;;;;4988622;28;20041;-71
2021/12/13 12:13:52;;;;;;;50.10;31.60;;;4.30;99.90;;;;;;4991123;28;20027;-72
2021/12/13 12:16:25;;;;;;;49.05;31.80;;;4.40;99.90;;;;;;4989993;28;20034;-72
2021/12/13 12:18:51;;;;;;;41.20;27.30;;;4.30;99.90;;;;;;4989035;28;20034;-72
2021/12/13 12:21:46;;;;;;;42.65;30.88;;;4.30;99.90;;;;;;4991341;28;20117;-71
2021/12/13 12:24:21;;;;;;;60.17;37.97;;;4.30;99.90;;;;;;4991185;28;20026;-71
2021/12/13 12:26:58;;;;;;;53.42;33.33;;;4.30;99.90;;;;;;4990493;28;20073;-71
2021/12/13 12:29:30;;;;;;;50.03;30.10;;;4.40;99.90;;;;;;4989682;28;20049;-71
2021/12/13 12:32:11;;;;;;;47.28;29.75;;;4.40;99.90;;;;;;4991239;28;20098;-71
2021/12/13 12:34:59;;;;;;;51.92;35.13;;;4.40;99.90;;;;;;5006033;28;20026;-71
2021/12/13 12:37:27;;;;;;;57.80;34.70;;;4.40;99.90;;;;;;4991422;28;20080;-72
2021/12/13 12:40:07;;;;;;;50.10;31.02;;;4.40;99.90;;;;;;4991316;28;20022;-71
2021/12/13 12:42:36;;;;;;;54.72;33.60;;;4.40;99.90;;;;;;4990353;28;20041;-71
2021/12/13 12:45:11;;;;;;;65.13;37.40;;;4.50;99.90;;;;;;4990890;28;20084;-72
2021/12/13 12:47:37;;;;;;;50.75;33.13;;;4.50;99.90;;;;;;4990839;28;20103;-71
2021/12/13 12:50:31;;;;;;;42.38;28.42;;;4.60;99.90;;;;;;4992660;28;20099;-72
2021/12/13 12:53:09;;;;;;;50.30;28.17;;;4.70;99.90;;;;;;4917861;29;20079;-72
2021/12/13 12:55:57;;;;;;;42.78;28.40;;;4.80;99.90;;;;;;4922051;29;20048;-71
2021/12/13 12:58:30;;;;;;;47.78;30.88;;;4.70;99.90;;;;;;4916060;29;20139;-72
2021/12/13 13:01:00;;;;;;;39.25;25.83;;;4.80;99.90;;;;;;4916972;29;20052;-70
2021/12/13 13:03:31;;;;;;;44.25;27.65;;;4.70;99.90;;;;;;4922591;29;20035;-72
2021/12/13 13:06:14;;;;;;;39.90;26.63;;;4.60;99.90;;;;;;4931603;29;20032;-71
2021/12/13 13:08:44;;;;;;;38.90;25.13;;;4.60;99.90;;;;;;4919186;29;20039;-71
2021/12/13 13:11:27;;;;;;;38.20;25.98;;;4.50;99.90;;;;;;4914323;29;20040;-71
2021/12/13 13:14:15;;;;;;;35.90;24.30;;;4.60;99.90;;;;;;4914702;29;20503;-71
2021/12/13 13:16:51;;;;;;;38.08;25.23;;;4.70;99.90;;;;;;4914728;29;20044;-70
2021/12/13 13:19:35;;;;;;;41.40;25.55;;;4.60;99.90;;;;;;4915296;29;20044;-72
2021/12/13 13:22:25;;;;;;;39.38;24.95;;;4.70;99.90;;;;;;4916056;29;20442;-73
2021/12/13 13:24:57;;;;;;;36.67;26.30;;;4.80;99.90;;;;;;4875985;29;20104;-72
2021/12/13 13:27:26;;;;;;;40.28;25.48;;;4.80;99.90;;;;;;4877196;29;20049;-72
2021/12/13 13:29:53;;;;;;;39.17;24.95;;;4.60;99.90;;;;;;4905409;29;20040;-72
2021/12/13 13:32:19;;;;;;;41.10;26.48;;;4.60;99.90;;;;;;4934077;29;20027;-72